sensor_id;sensor_type;location;lat;lon;timestamp;P1;durP1;ratioP1;P2;durP2;ratioP2
70744;SDS011;59284;31.390;34.904;2022-09-29T00:00:19;7.18;;;1.35;;
70744;SDS011;59284;31.390;34.904;2022-09-29T00:02:45;10.50;;;1.67;;
70744;SDS011;59284;31.390;34.904;2022-09-29T00:05:11;13.93;;;1.30;;
70744;SDS011;59284;31.390;34.904;2022-09-29T00:07:37;9.30;;;1.73;;
70744;SDS011;59284;31.390;34.904;2022-09-29T00:10:02;10.87;;;1.50;;
70744;SDS011;59284;31.390;34.904;2022-09-29T00:12:29;10.10;;;1.52;;
70744;SDS011;59284;31.390;34.904;2022-09-29T00:14:54;8.40;;;1.30;;
70744;SDS011;59284;31.390;34.904;2022-09-29T00:17:20;10.53;;;1.33;;
70744;SDS011;59284;31.390;34.904;2022-09-29T00:19:46;8.60;;;1.38;;
70744;SDS011;59284;31.390;34.904;2022-09-29T00:22:12;10.33;;;1.87;;
70744;SDS011;59284;31.390;34.904;2022-09-29T00:24:38;9.02;;;1.67;;
70744;SDS011;59284;31.390;34.904;2022-09-29T00:27:04;7.68;;;1.45;;
70744;SDS011;59284;31.390;34.904;2022-09-29T00:29:30;10.43;;;1.30;;
70744;SDS011;59284;31.390;34.904;2022-09-29T00:31:56;11.13;;;1.37;;
70744;SDS011;59284;31.390;34.904;2022-09-29T00:34:22;13.13;;;1.40;;
70744;SDS011;59284;31.390;34.904;2022-09-29T00:36:48;10.45;;;1.55;;
70744;SDS011;59284;31.390;34.904;2022-09-29T00:39:14;8.60;;;1.20;;
70744;SDS011;59284;31.390;34.904;2022-09-29T00:41:40;10.18;;;1.40;;
70744;SDS011;59284;31.390;34.904;2022-09-29T00:46:42;11.20;;;1.38;;
70744;SDS011;59284;31.390;34.904;2022-09-29T00:49:33;9.90;;;2.15;;
70744;SDS011;59284;31.390;34.904;2022-09-29T00:52:04;6.03;;;1.17;;
70744;SDS011;59284;31.390;34.904;2022-09-29T00:54:38;9.98;;;1.30;;
70744;SDS011;59284;31.390;34.904;2022-09-29T00:57:15;9.50;;;1.17;;
70744;SDS011;59284;31.390;34.904;2022-09-29T00:59:48;9.82;;;1.20;;
70744;SDS011;59284;31.390;34.904;2022-09-29T01:02:23;9.00;;;1.48;;
70744;SDS011;59284;31.390;34.904;2022-09-29T01:04:53;8.43;;;1.42;;
70744;SDS011;59284;31.390;34.904;2022-09-29T01:07:21;13.52;;;1.20;;
70744;SDS011;59284;31.390;34.904;2022-09-29T01:09:51;7.53;;;1.50;;
70744;SDS011;59284;31.390;34.904;2022-09-29T01:12:20;7.43;;;1.05;;
70744;SDS011;59284;31.390;34.904;2022-09-29T01:14:47;8.38;;;1.45;;
70744;SDS011;59284;31.390;34.904;2022-09-29T01:17:13;12.85;;;1.42;;
70744;SDS011;59284;31.390;34.904;2022-09-29T01:28:13;8.77;;;1.52;;
70744;SDS011;59284;31.390;34.904;2022-09-29T01:38:57;11.85;;;1.65;;
70744;SDS011;59284;31.390;34.904;2022-09-29T01:44:45;10.27;;;1.23;;
70744;SDS011;59284;31.390;34.904;2022-09-29T01:47:24;10.75;;;1.95;;
70744;SDS011;59284;31.390;34.904;2022-09-29T01:49:59;10.43;;;1.10;;
70744;SDS011;59284;31.390;34.904;2022-09-29T01:52:29;7.47;;;1.40;;
70744;SDS011;59284;31.390;34.904;2022-09-29T01:55:04;8.50;;;1.08;;
70744;SDS011;59284;31.390;34.904;2022-09-29T01:57:53;8.15;;;1.33;;
70744;SDS011;59284;31.390;34.904;2022-09-29T02:00:26;4.78;;;1.13;;
70744;SDS011;59284;31.390;34.904;2022-09-29T02:02:57;15.53;;;1.40;;
70744;SDS011;59284;31.390;34.904;2022-09-29T02:05:39;8.05;;;1.58;;
70744;SDS011;59284;31.390;34.904;2022-09-29T02:08:18;9.75;;;1.45;;
70744;SDS011;59284;31.390;34.904;2022-09-29T02:11:09;12.35;;;1.30;;
70744;SDS011;59284;31.390;34.904;2022-09-29T02:16:31;12.90;;;1.47;;
70744;SDS011;59284;31.390;34.904;2022-09-29T02:19:05;10.07;;;1.27;;
70744;SDS011;59284;31.390;34.904;2022-09-29T02:21:37;15.35;;;1.50;;
70744;SDS011;59284;31.390;34.904;2022-09-29T02:24:04;11.55;;;1.48;;
70744;SDS011;59284;31.390;34.904;2022-09-29T02:26:31;11.13;;;1.37;;
70744;SDS011;59284;31.390;34.904;2022-09-29T02:29:02;9.25;;;1.40;;
70744;SDS011;59284;31.390;34.904;2022-09-29T02:31:29;3.90;;;1.20;;
70744;SDS011;59284;31.390;34.904;2022-09-29T02:33:57;7.22;;;1.15;;
70744;SDS011;59284;31.390;34.904;2022-09-29T02:41:55;7.13;;;1.10;;
70744;SDS011;59284;31.390;34.904;2022-09-29T02:47:40;7.90;;;1.35;;
70744;SDS011;59284;31.390;34.904;2022-09-29T02:55:56;11.93;;;1.50;;
70744;SDS011;59284;31.390;34.904;2022-09-29T02:58:43;13.23;;;1.60;;
70744;SDS011;59284;31.390;34.904;2022-09-29T03:01:18;16.08;;;1.63;;
70744;SDS011;59284;31.390;34.904;2022-09-29T03:03:44;12.60;;;1.50;;
70744;SDS011;59284;31.390;34.904;2022-09-29T03:06:10;9.80;;;1.30;;
70744;SDS011;59284;31.390;34.904;2022-09-29T03:08:37;12.98;;;1.77;;
70744;SDS011;59284;31.390;34.904;2022-09-29T03:11:03;8.75;;;1.20;;
70744;SDS011;59284;31.390;34.904;2022-09-29T03:13:30;5.87;;;1.03;;
70744;SDS011;59284;31.390;34.904;2022-09-29T03:15:56;8.02;;;1.38;;
70744;SDS011;59284;31.390;34.904;2022-09-29T03:18:22;9.60;;;1.42;;
70744;SDS011;59284;31.390;34.904;2022-09-29T03:20:49;8.07;;;1.00;;
70744;SDS011;59284;31.390;34.904;2022-09-29T03:23:15;11.13;;;1.27;;
70744;SDS011;59284;31.390;34.904;2022-09-29T03:46:23;7.10;;;1.83;;
70744;SDS011;59284;31.390;34.904;2022-09-29T03:49:00;7.40;;;1.40;;
70744;SDS011;59284;31.390;34.904;2022-09-29T03:51:52;9.98;;;1.38;;
70744;SDS011;59284;31.390;34.904;2022-09-29T03:54:21;11.18;;;1.60;;
70744;SDS011;59284;31.390;34.904;2022-09-29T03:56:52;12.88;;;1.30;;
70744;SDS011;59284;31.390;34.904;2022-09-29T03:59:17;7.27;;;1.63;;
70744;SDS011;59284;31.390;34.904;2022-09-29T04:01:44;8.80;;;1.52;;
70744;SDS011;59284;31.390;34.904;2022-09-29T04:04:10;13.02;;;1.73;;
70744;SDS011;59284;31.390;34.904;2022-09-29T04:06:36;9.73;;;1.17;;
70744;SDS011;59284;31.390;34.904;2022-09-29T04:09:02;12.20;;;1.67;;
70744;SDS011;59284;31.390;34.904;2022-09-29T04:11:28;8.90;;;1.63;;
70744;SDS011;59284;31.390;34.904;2022-09-29T04:13:54;9.73;;;1.35;;
70744;SDS011;59284;31.390;34.904;2022-09-29T04:16:19;8.40;;;1.47;;
70744;SDS011;59284;31.390;34.904;2022-09-29T04:18:45;12.43;;;1.77;;
70744;SDS011;59284;31.390;34.904;2022-09-29T04:21:11;10.87;;;1.37;;
70744;SDS011;59284;31.390;34.904;2022-09-29T04:23:37;15.75;;;2.38;;
70744;SDS011;59284;31.390;34.904;2022-09-29T04:26:05;15.20;;;1.63;;
70744;SDS011;59284;31.390;34.904;2022-09-29T04:28:33;17.90;;;2.10;;
70744;SDS011;59284;31.390;34.904;2022-09-29T04:31:00;17.33;;;1.60;;
70744;SDS011;59284;31.390;34.904;2022-09-29T04:33:26;19.67;;;1.90;;
70744;SDS011;59284;31.390;34.904;2022-09-29T04:35:54;17.85;;;2.00;;
70744;SDS011;59284;31.390;34.904;2022-09-29T04:38:20;11.55;;;1.77;;
70744;SDS011;59284;31.390;34.904;2022-09-29T04:40:47;21.30;;;1.97;;
70744;SDS011;59284;31.390;34.904;2022-09-29T04:43:14;10.02;;;1.50;;
70744;SDS011;59284;31.390;34.904;2022-09-29T04:45:41;14.25;;;1.92;;
70744;SDS011;59284;31.390;34.904;2022-09-29T04:48:08;21.27;;;1.95;;
70744;SDS011;59284;31.390;34.904;2022-09-29T04:50:34;9.65;;;1.38;;
70744;SDS011;59284;31.390;34.904;2022-09-29T04:53:00;9.00;;;1.77;;
70744;SDS011;59284;31.390;34.904;2022-09-29T04:55:26;6.07;;;1.60;;
70744;SDS011;59284;31.390;34.904;2022-09-29T04:57:51;9.80;;;1.60;;
70744;SDS011;59284;31.390;34.904;2022-09-29T05:00:17;18.63;;;1.97;;
70744;SDS011;59284;31.390;34.904;2022-09-29T05:02:43;16.45;;;2.03;;
70744;SDS011;59284;31.390;34.904;2022-09-29T05:05:09;12.68;;;1.98;;
70744;SDS011;59284;31.390;34.904;2022-09-29T05:07:37;13.87;;;2.03;;
70744;SDS011;59284;31.390;34.904;2022-09-29T05:10:07;13.63;;;1.88;;
70744;SDS011;59284;31.390;34.904;2022-09-29T05:12:33;10.75;;;1.65;;
70744;SDS011;59284;31.390;34.904;2022-09-29T05:14:59;16.38;;;2.28;;
70744;SDS011;59284;31.390;34.904;2022-09-29T05:17:25;14.68;;;2.33;;
70744;SDS011;59284;31.390;34.904;2022-09-29T05:19:51;9.37;;;1.70;;
70744;SDS011;59284;31.390;34.904;2022-09-29T05:22:16;9.75;;;1.70;;
70744;SDS011;59284;31.390;34.904;2022-09-29T05:24:48;16.43;;;2.00;;
70744;SDS011;59284;31.390;34.904;2022-09-29T05:27:17;11.65;;;1.92;;
70744;SDS011;59284;31.390;34.904;2022-09-29T05:29:43;7.65;;;1.35;;
70744;SDS011;59284;31.390;34.904;2022-09-29T05:32:09;10.45;;;1.83;;
70744;SDS011;59284;31.390;34.904;2022-09-29T05:34:36;13.67;;;1.77;;
70744;SDS011;59284;31.390;34.904;2022-09-29T05:37:01;13.00;;;2.25;;
70744;SDS011;59284;31.390;34.904;2022-09-29T05:39:28;9.25;;;1.77;;
70744;SDS011;59284;31.390;34.904;2022-09-29T05:41:58;10.33;;;1.70;;
70744;SDS011;59284;31.390;34.904;2022-09-29T05:44:23;15.80;;;2.47;;
70744;SDS011;59284;31.390;34.904;2022-09-29T05:46:51;14.77;;;1.70;;
70744;SDS011;59284;31.390;34.904;2022-09-29T05:49:19;19.23;;;1.92;;
70744;SDS011;59284;31.390;34.904;2022-09-29T05:51:45;17.90;;;2.08;;
70744;SDS011;59284;31.390;34.904;2022-09-29T05:54:11;22.60;;;2.47;;
70744;SDS011;59284;31.390;34.904;2022-09-29T05:56:36;11.80;;;2.10;;
70744;SDS011;59284;31.390;34.904;2022-09-29T05:59:02;17.70;;;2.57;;
70744;SDS011;59284;31.390;34.904;2022-09-29T06:01:28;19.40;;;2.35;;
70744;SDS011;59284;31.390;34.904;2022-09-29T06:03:54;6.87;;;1.47;;
70744;SDS011;59284;31.390;34.904;2022-09-29T06:06:21;8.07;;;1.75;;
70744;SDS011;59284;31.390;34.904;2022-09-29T06:08:49;9.15;;;1.75;;
70744;SDS011;59284;31.390;34.904;2022-09-29T06:11:23;16.77;;;2.00;;
70744;SDS011;59284;31.390;34.904;2022-09-29T06:13:52;7.43;;;1.90;;
70744;SDS011;59284;31.390;34.904;2022-09-29T06:16:20;12.30;;;2.25;;
70744;SDS011;59284;31.390;34.904;2022-09-29T06:18:47;9.70;;;2.10;;
70744;SDS011;59284;31.390;34.904;2022-09-29T06:21:14;12.75;;;1.90;;
70744;SDS011;59284;31.390;34.904;2022-09-29T06:23:42;10.77;;;2.40;;
70744;SDS011;59284;31.390;34.904;2022-09-29T06:26:09;14.27;;;1.85;;
70744;SDS011;59284;31.390;34.904;2022-09-29T06:28:37;11.00;;;2.00;;
70744;SDS011;59284;31.390;34.904;2022-09-29T06:31:07;9.68;;;1.52;;
70744;SDS011;59284;31.390;34.904;2022-09-29T06:33:37;9.68;;;1.92;;
70744;SDS011;59284;31.390;34.904;2022-09-29T06:36:07;9.70;;;1.63;;
70744;SDS011;59284;31.390;34.904;2022-09-29T06:38:58;20.77;;;2.63;;
70744;SDS011;59284;31.390;34.904;2022-09-29T06:41:25;25.70;;;2.55;;
70744;SDS011;59284;31.390;34.904;2022-09-29T06:43:52;11.80;;;2.25;;
70744;SDS011;59284;31.390;34.904;2022-09-29T06:46:18;15.33;;;2.30;;
70744;SDS011;59284;31.390;34.904;2022-09-29T06:48:45;13.05;;;2.33;;
70744;SDS011;59284;31.390;34.904;2022-09-29T06:51:11;19.48;;;2.10;;
70744;SDS011;59284;31.390;34.904;2022-09-29T06:53:38;16.08;;;2.08;;
70744;SDS011;59284;31.390;34.904;2022-09-29T06:56:04;13.87;;;2.23;;
70744;SDS011;59284;31.390;34.904;2022-09-29T06:58:30;16.50;;;2.20;;
70744;SDS011;59284;31.390;34.904;2022-09-29T07:00:58;16.60;;;2.70;;
70744;SDS011;59284;31.390;34.904;2022-09-29T07:03:26;13.07;;;2.20;;
70744;SDS011;59284;31.390;34.904;2022-09-29T07:05:52;18.75;;;2.45;;
70744;SDS011;59284;31.390;34.904;2022-09-29T07:08:18;13.20;;;1.92;;
70744;SDS011;59284;31.390;34.904;2022-09-29T07:10:44;18.10;;;2.40;;
70744;SDS011;59284;31.390;34.904;2022-09-29T07:13:11;15.75;;;1.95;;
70744;SDS011;59284;31.390;34.904;2022-09-29T07:15:36;16.37;;;1.83;;
70744;SDS011;59284;31.390;34.904;2022-09-29T07:18:02;14.48;;;2.53;;
70744;SDS011;59284;31.390;34.904;2022-09-29T07:20:29;16.10;;;1.92;;
70744;SDS011;59284;31.390;34.904;2022-09-29T07:22:56;15.95;;;2.35;;
70744;SDS011;59284;31.390;34.904;2022-09-29T07:25:22;17.20;;;2.23;;
70744;SDS011;59284;31.390;34.904;2022-09-29T07:27:48;17.98;;;2.03;;
70744;SDS011;59284;31.390;34.904;2022-09-29T07:30:15;10.43;;;2.53;;
70744;SDS011;59284;31.390;34.904;2022-09-29T07:32:44;13.40;;;2.45;;
70744;SDS011;59284;31.390;34.904;2022-09-29T07:35:10;12.65;;;1.73;;
70744;SDS011;59284;31.390;34.904;2022-09-29T07:37:35;17.00;;;2.07;;
70744;SDS011;59284;31.390;34.904;2022-09-29T07:40:01;12.38;;;1.77;;
70744;SDS011;59284;31.390;34.904;2022-09-29T07:42:27;10.03;;;2.00;;
70744;SDS011;59284;31.390;34.904;2022-09-29T07:44:53;12.68;;;1.73;;
70744;SDS011;59284;31.390;34.904;2022-09-29T07:47:20;10.73;;;1.77;;
70744;SDS011;59284;31.390;34.904;2022-09-29T07:49:46;15.30;;;1.97;;
70744;SDS011;59284;31.390;34.904;2022-09-29T07:52:12;16.55;;;1.90;;
70744;SDS011;59284;31.390;34.904;2022-09-29T07:54:38;9.35;;;1.30;;
70744;SDS011;59284;31.390;34.904;2022-09-29T07:57:03;15.53;;;1.90;;
70744;SDS011;59284;31.390;34.904;2022-09-29T07:59:29;9.60;;;2.10;;
70744;SDS011;59284;31.390;34.904;2022-09-29T08:01:55;13.70;;;2.53;;
70744;SDS011;59284;31.390;34.904;2022-09-29T08:04:21;9.43;;;1.67;;
70744;SDS011;59284;31.390;34.904;2022-09-29T08:06:47;13.43;;;2.05;;
70744;SDS011;59284;31.390;34.904;2022-09-29T08:09:16;18.42;;;2.60;;
70744;SDS011;59284;31.390;34.904;2022-09-29T08:11:41;14.15;;;2.00;;
70744;SDS011;59284;31.390;34.904;2022-09-29T08:14:08;12.80;;;2.20;;
70744;SDS011;59284;31.390;34.904;2022-09-29T08:16:36;8.38;;;1.70;;
70744;SDS011;59284;31.390;34.904;2022-09-29T08:19:04;11.18;;;2.20;;
70744;SDS011;59284;31.390;34.904;2022-09-29T08:21:31;16.08;;;2.08;;
70744;SDS011;59284;31.390;34.904;2022-09-29T08:24:01;14.98;;;1.98;;
70744;SDS011;59284;31.390;34.904;2022-09-29T08:26:30;10.67;;;1.87;;
70744;SDS011;59284;31.390;34.904;2022-09-29T08:29:00;11.13;;;2.65;;
70744;SDS011;59284;31.390;34.904;2022-09-29T08:31:27;7.57;;;1.50;;
70744;SDS011;59284;31.390;34.904;2022-09-29T08:33:54;10.70;;;1.77;;
70744;SDS011;59284;31.390;34.904;2022-09-29T08:36:23;10.60;;;1.83;;
70744;SDS011;59284;31.390;34.904;2022-09-29T08:38:53;19.20;;;2.30;;
70744;SDS011;59284;31.390;34.904;2022-09-29T08:43:53;15.35;;;1.70;;
70744;SDS011;59284;31.390;34.904;2022-09-29T08:46:29;13.13;;;2.25;;
70744;SDS011;59284;31.390;34.904;2022-09-29T08:49:01;12.70;;;2.08;;
70744;SDS011;59284;31.390;34.904;2022-09-29T08:54:02;16.13;;;2.20;;
70744;SDS011;59284;31.390;34.904;2022-09-29T08:56:37;10.77;;;1.95;;
70744;SDS011;59284;31.390;34.904;2022-09-29T08:59:03;14.73;;;2.47;;
70744;SDS011;59284;31.390;34.904;2022-09-29T09:04:18;17.05;;;3.25;;
70744;SDS011;59284;31.390;34.904;2022-09-29T09:07:14;11.52;;;2.72;;
70744;SDS011;59284;31.390;34.904;2022-09-29T09:12:47;10.93;;;1.90;;
70744;SDS011;59284;31.390;34.904;2022-09-29T09:20:52;13.07;;;2.50;;
70744;SDS011;59284;31.390;34.904;2022-09-29T09:26:15;11.33;;;2.33;;
70744;SDS011;59284;31.390;34.904;2022-09-29T09:29:08;17.77;;;2.30;;
70744;SDS011;59284;31.390;34.904;2022-09-29T09:31:53;10.27;;;1.98;;
70744;SDS011;59284;31.390;34.904;2022-09-29T09:37:15;13.15;;;2.90;;
70744;SDS011;59284;31.390;34.904;2022-09-29T09:39:50;17.50;;;2.93;;
70744;SDS011;59284;31.390;34.904;2022-09-29T09:42:40;14.85;;;2.30;;
70744;SDS011;59284;31.390;34.904;2022-09-29T09:48:01;16.00;;;2.78;;
70744;SDS011;59284;31.390;34.904;2022-09-29T09:50:37;20.48;;;2.58;;
70744;SDS011;59284;31.390;34.904;2022-09-29T09:53:26;15.70;;;3.20;;
70744;SDS011;59284;31.390;34.904;2022-09-29T09:56:18;14.32;;;2.47;;
70744;SDS011;59284;31.390;34.904;2022-09-29T10:01:32;16.00;;;2.10;;
70744;SDS011;59284;31.390;34.904;2022-09-29T10:03:57;21.27;;;2.10;;
70744;SDS011;59284;31.390;34.904;2022-09-29T10:06:24;15.67;;;2.63;;
70744;SDS011;59284;31.390;34.904;2022-09-29T10:08:50;18.25;;;3.30;;
70744;SDS011;59284;31.390;34.904;2022-09-29T10:11:27;15.02;;;2.58;;
70744;SDS011;59284;31.390;34.904;2022-09-29T10:16:47;15.95;;;2.60;;
70744;SDS011;59284;31.390;34.904;2022-09-29T10:19:21;23.67;;;2.70;;
70744;SDS011;59284;31.390;34.904;2022-09-29T10:21:48;14.32;;;2.30;;
70744;SDS011;59284;31.390;34.904;2022-09-29T10:26:55;18.90;;;2.90;;
70744;SDS011;59284;31.390;34.904;2022-09-29T10:32:03;30.92;;;4.95;;
70744;SDS011;59284;31.390;34.904;2022-09-29T10:34:32;19.92;;;3.22;;
70744;SDS011;59284;31.390;34.904;2022-09-29T10:37:04;21.98;;;3.10;;
70744;SDS011;59284;31.390;34.904;2022-09-29T10:39:51;19.33;;;2.70;;
70744;SDS011;59284;31.390;34.904;2022-09-29T10:42:30;22.10;;;2.92;;
70744;SDS011;59284;31.390;34.904;2022-09-29T10:47:40;14.85;;;3.20;;
70744;SDS011;59284;31.390;34.904;2022-09-29T10:52:43;16.37;;;3.03;;
70744;SDS011;59284;31.390;34.904;2022-09-29T10:55:21;14.77;;;3.63;;
70744;SDS011;59284;31.390;34.904;2022-09-29T10:57:54;16.42;;;2.53;;
70744;SDS011;59284;31.390;34.904;2022-09-29T11:06:00;13.37;;;2.90;;
70744;SDS011;59284;31.390;34.904;2022-09-29T11:08:30;11.32;;;3.05;;
70744;SDS011;59284;31.390;34.904;2022-09-29T11:11:04;18.48;;;3.22;;
70744;SDS011;59284;31.390;34.904;2022-09-29T11:13:42;28.73;;;3.30;;
70744;SDS011;59284;31.390;34.904;2022-09-29T11:16:16;19.88;;;3.15;;
70744;SDS011;59284;31.390;34.904;2022-09-29T11:18:44;22.13;;;3.03;;
70744;SDS011;59284;31.390;34.904;2022-09-29T11:24:05;16.70;;;2.65;;
70744;SDS011;59284;31.390;34.904;2022-09-29T11:30:07;14.82;;;2.70;;
70744;SDS011;59284;31.390;34.904;2022-09-29T11:35:59;23.63;;;3.33;;
70744;SDS011;59284;31.390;34.904;2022-09-29T11:38:55;18.33;;;2.85;;
70744;SDS011;59284;31.390;34.904;2022-09-29T11:48:11;13.63;;;2.97;;
70744;SDS011;59284;31.390;34.904;2022-09-29T11:55:50;24.10;;;3.50;;
70744;SDS011;59284;31.390;34.904;2022-09-29T12:07:13;16.80;;;3.80;;
70744;SDS011;59284;31.390;34.904;2022-09-29T12:16:00;15.47;;;3.17;;
70744;SDS011;59284;31.390;34.904;2022-09-29T12:18:38;17.30;;;3.70;;
70744;SDS011;59284;31.390;34.904;2022-09-29T12:21:26;11.75;;;2.97;;
70744;SDS011;59284;31.390;34.904;2022-09-29T12:24:08;11.10;;;3.05;;
70744;SDS011;59284;31.390;34.904;2022-09-29T12:26:42;14.18;;;3.30;;
70744;SDS011;59284;31.390;34.904;2022-09-29T12:31:55;14.13;;;3.80;;
70744;SDS011;59284;31.390;34.904;2022-09-29T12:34:35;10.18;;;3.10;;
70744;SDS011;59284;31.390;34.904;2022-09-29T12:39:58;13.43;;;3.40;;
70744;SDS011;59284;31.390;34.904;2022-09-29T12:56:31;17.47;;;2.70;;
70744;SDS011;59284;31.390;34.904;2022-09-29T13:01:38;10.68;;;2.53;;
70744;SDS011;59284;31.390;34.904;2022-09-29T13:06:58;20.05;;;3.20;;
70744;SDS011;59284;31.390;34.904;2022-09-29T13:09:42;11.63;;;2.53;;
70744;SDS011;59284;31.390;34.904;2022-09-29T13:17:52;12.85;;;2.30;;
70744;SDS011;59284;31.390;34.904;2022-09-29T13:20:33;14.85;;;2.53;;
70744;SDS011;59284;31.390;34.904;2022-09-29T13:28:48;11.15;;;2.38;;
70744;SDS011;59284;31.390;34.904;2022-09-29T13:31:24;16.45;;;2.88;;
70744;SDS011;59284;31.390;34.904;2022-09-29T13:33:54;10.38;;;2.38;;
70744;SDS011;59284;31.390;34.904;2022-09-29T13:36:31;9.00;;;2.20;;
70744;SDS011;59284;31.390;34.904;2022-09-29T13:39:04;13.32;;;2.58;;
70744;SDS011;59284;31.390;34.904;2022-09-29T13:41:48;19.00;;;2.95;;
70744;SDS011;59284;31.390;34.904;2022-09-29T13:44:25;13.75;;;2.72;;
70744;SDS011;59284;31.390;34.904;2022-09-29T13:47:09;12.63;;;2.80;;
70744;SDS011;59284;31.390;34.904;2022-09-29T13:50:00;10.23;;;2.93;;
70744;SDS011;59284;31.390;34.904;2022-09-29T13:52:47;16.35;;;2.30;;
70744;SDS011;59284;31.390;34.904;2022-09-29T14:00:53;8.38;;;2.47;;
70744;SDS011;59284;31.390;34.904;2022-09-29T14:03:24;12.33;;;2.40;;
70744;SDS011;59284;31.390;34.904;2022-09-29T14:05:52;12.52;;;2.63;;
70744;SDS011;59284;31.390;34.904;2022-09-29T14:08:24;14.40;;;2.38;;
70744;SDS011;59284;31.390;34.904;2022-09-29T14:11:04;16.05;;;2.35;;
70744;SDS011;59284;31.390;34.904;2022-09-29T14:13:40;12.88;;;2.47;;
70744;SDS011;59284;31.390;34.904;2022-09-29T14:21:58;8.50;;;2.13;;
70744;SDS011;59284;31.390;34.904;2022-09-29T14:29:43;11.60;;;2.30;;
70744;SDS011;59284;31.390;34.904;2022-09-29T14:32:16;13.45;;;2.60;;
70744;SDS011;59284;31.390;34.904;2022-09-29T14:34:59;10.77;;;2.47;;
70744;SDS011;59284;31.390;34.904;2022-09-29T14:37:25;13.10;;;2.22;;
70744;SDS011;59284;31.390;34.904;2022-09-29T14:39:57;7.88;;;1.98;;
70744;SDS011;59284;31.390;34.904;2022-09-29T14:42:43;11.90;;;2.43;;
70744;SDS011;59284;31.390;34.904;2022-09-29T14:45:12;8.45;;;2.08;;
70744;SDS011;59284;31.390;34.904;2022-09-29T14:47:59;10.13;;;1.90;;
70744;SDS011;59284;31.390;34.904;2022-09-29T14:51:29;9.98;;;2.17;;
70744;SDS011;59284;31.390;34.904;2022-09-29T14:54:20;11.70;;;2.28;;
70744;SDS011;59284;31.390;34.904;2022-09-29T15:00:14;9.50;;;1.98;;
70744;SDS011;59284;31.390;34.904;2022-09-29T15:02:45;8.40;;;2.00;;
70744;SDS011;59284;31.390;34.904;2022-09-29T15:05:27;13.35;;;2.10;;
70744;SDS011;59284;31.390;34.904;2022-09-29T15:08:02;9.25;;;2.80;;
70744;SDS011;59284;31.390;34.904;2022-09-29T15:10:50;7.33;;;1.93;;
70744;SDS011;59284;31.390;34.904;2022-09-29T15:16:04;8.45;;;2.30;;
70744;SDS011;59284;31.390;34.904;2022-09-29T15:21:42;14.07;;;2.85;;
70744;SDS011;59284;31.390;34.904;2022-09-29T15:27:14;6.75;;;2.05;;
70744;SDS011;59284;31.390;34.904;2022-09-29T15:29:44;6.05;;;2.03;;
70744;SDS011;59284;31.390;34.904;2022-09-29T15:32:33;7.90;;;2.40;;
70744;SDS011;59284;31.390;34.904;2022-09-29T15:35:00;11.18;;;2.30;;
70744;SDS011;59284;31.390;34.904;2022-09-29T15:38:15;9.63;;;2.20;;
70744;SDS011;59284;31.390;34.904;2022-09-29T15:40:17;9.80;;;2.63;;
70744;SDS011;59284;31.390;34.904;2022-09-29T15:42:45;21.27;;;3.22;;
70744;SDS011;59284;31.390;34.904;2022-09-29T15:45:15;7.47;;;2.17;;
70744;SDS011;59284;31.390;34.904;2022-09-29T15:47:47;9.93;;;2.85;;
70744;SDS011;59284;31.390;34.904;2022-09-29T15:50:24;16.00;;;2.30;;
70744;SDS011;59284;31.390;34.904;2022-09-29T15:52:50;8.90;;;2.42;;
70744;SDS011;59284;31.390;34.904;2022-09-29T15:55:22;7.68;;;2.35;;
70744;SDS011;59284;31.390;34.904;2022-09-29T15:57:50;12.45;;;2.55;;
70744;SDS011;59284;31.390;34.904;2022-09-29T16:00:40;17.20;;;3.80;;
70744;SDS011;59284;31.390;34.904;2022-09-29T16:03:24;12.10;;;1.97;;
70744;SDS011;59284;31.390;34.904;2022-09-29T16:08:47;7.43;;;2.67;;
70744;SDS011;59284;31.390;34.904;2022-09-29T16:13:50;8.52;;;2.40;;
70744;SDS011;59284;31.390;34.904;2022-09-29T16:16:24;9.00;;;2.23;;
70744;SDS011;59284;31.390;34.904;2022-09-29T16:18:53;6.53;;;2.70;;
70744;SDS011;59284;31.390;34.904;2022-09-29T16:21:25;8.98;;;2.47;;
70744;SDS011;59284;31.390;34.904;2022-09-29T16:24:15;16.70;;;3.40;;
70744;SDS011;59284;31.390;34.904;2022-09-29T16:26:44;9.82;;;2.97;;
70744;SDS011;59284;31.390;34.904;2022-09-29T16:31:48;10.60;;;3.08;;
70744;SDS011;59284;31.390;34.904;2022-09-29T16:37:02;15.25;;;3.05;;
70744;SDS011;59284;31.390;34.904;2022-09-29T16:39:42;11.95;;;3.17;;
70744;SDS011;59284;31.390;34.904;2022-09-29T16:42:17;13.70;;;2.77;;
70744;SDS011;59284;31.390;34.904;2022-09-29T16:44:52;9.85;;;3.25;;
70744;SDS011;59284;31.390;34.904;2022-09-29T16:47:23;8.95;;;2.40;;
70744;SDS011;59284;31.390;34.904;2022-09-29T16:49:58;5.97;;;2.70;;
70744;SDS011;59284;31.390;34.904;2022-09-29T16:52:28;8.82;;;3.10;;
70744;SDS011;59284;31.390;34.904;2022-09-29T17:00:19;13.85;;;3.20;;
70744;SDS011;59284;31.390;34.904;2022-09-29T17:02:49;9.07;;;3.00;;
70744;SDS011;59284;31.390;34.904;2022-09-29T17:05:16;14.20;;;3.30;;
70744;SDS011;59284;31.390;34.904;2022-09-29T17:07:42;9.47;;;3.00;;
70744;SDS011;59284;31.390;34.904;2022-09-29T17:10:18;10.93;;;2.88;;
70744;SDS011;59284;31.390;34.904;2022-09-29T17:12:45;15.20;;;3.50;;
70744;SDS011;59284;31.390;34.904;2022-09-29T17:15:14;11.63;;;3.00;;
70744;SDS011;59284;31.390;34.904;2022-09-29T17:17:42;10.90;;;3.15;;
70744;SDS011;59284;31.390;34.904;2022-09-29T17:20:14;6.93;;;2.90;;
70744;SDS011;59284;31.390;34.904;2022-09-29T17:22:42;11.93;;;2.97;;
70744;SDS011;59284;31.390;34.904;2022-09-29T17:25:09;8.32;;;3.33;;
70744;SDS011;59284;31.390;34.904;2022-09-29T17:27:36;13.48;;;3.65;;
70744;SDS011;59284;31.390;34.904;2022-09-29T17:30:23;8.60;;;2.85;;
70744;SDS011;59284;31.390;34.904;2022-09-29T17:32:51;8.57;;;3.00;;
70744;SDS011;59284;31.390;34.904;2022-09-29T17:35:28;9.27;;;3.08;;
70744;SDS011;59284;31.390;34.904;2022-09-29T17:37:56;18.65;;;3.53;;
70744;SDS011;59284;31.390;34.904;2022-09-29T17:43:07;10.63;;;3.37;;
70744;SDS011;59284;31.390;34.904;2022-09-29T17:45:32;8.18;;;2.78;;
70744;SDS011;59284;31.390;34.904;2022-09-29T17:48:00;9.80;;;3.20;;
70744;SDS011;59284;31.390;34.904;2022-09-29T17:50:28;8.23;;;3.10;;
70744;SDS011;59284;31.390;34.904;2022-09-29T17:52:57;15.82;;;3.60;;
70744;SDS011;59284;31.390;34.904;2022-09-29T17:55:24;11.60;;;3.90;;
70744;SDS011;59284;31.390;34.904;2022-09-29T17:57:52;11.95;;;4.47;;
70744;SDS011;59284;31.390;34.904;2022-09-29T18:00:21;12.93;;;5.18;;
70744;SDS011;59284;31.390;34.904;2022-09-29T18:03:23;11.43;;;4.80;;
70744;SDS011;59284;31.390;34.904;2022-09-29T18:05:50;11.52;;;4.57;;
70744;SDS011;59284;31.390;34.904;2022-09-29T18:08:23;11.50;;;4.20;;
70744;SDS011;59284;31.390;34.904;2022-09-29T18:10:51;10.57;;;4.65;;
70744;SDS011;59284;31.390;34.904;2022-09-29T18:13:25;16.73;;;4.80;;
70744;SDS011;59284;31.390;34.904;2022-09-29T18:15:52;9.53;;;4.20;;
70744;SDS011;59284;31.390;34.904;2022-09-29T18:18:19;11.05;;;3.70;;
70744;SDS011;59284;31.390;34.904;2022-09-29T18:20:47;13.75;;;3.78;;
70744;SDS011;59284;31.390;34.904;2022-09-29T18:23:17;15.63;;;4.20;;
70744;SDS011;59284;31.390;34.904;2022-09-29T18:25:49;12.27;;;3.95;;
70744;SDS011;59284;31.390;34.904;2022-09-29T18:28:16;14.60;;;4.77;;
70744;SDS011;59284;31.390;34.904;2022-09-29T18:30:44;5.88;;;3.30;;
70744;SDS011;59284;31.390;34.904;2022-09-29T18:33:12;13.60;;;3.72;;
70744;SDS011;59284;31.390;34.904;2022-09-29T18:35:43;11.77;;;3.70;;